KMRJ

Iowa County Airport

Mineral Point, Wisconsin, USA
METAR KMRJ 191555Z AUTO 01012G16KT 2 1/2SM -SN CLR M10/M12 A3017 RMK AO2 VIS 1 1/4V5
Observed Flight Rules
Jan-19 @ 15:55 UTC (42 minutes ago) Instrument Flight Rules
Wind Visibility Clouds Conditions
10° at 12 knots
 Gusting to 16 knots
2 1/2 miles
  • Clear skies
  • Light Snow
Temperatures Readings
Current -10°C / 14°F
Dewpoint -12°C / 10°F
Humidity 85%
Altimeter 30.17" Hg
Pressure 1021.72 hPa
Elevation 359
METAR KMRJ 191555Z AUTO 01012G16KT 2 1/2SM -SN CLR M10/M12 A3017 RMK AO2 VIS 1 1/4V5
Observed Flight Rules
Jan-19 @ 15:55 UTC
(42 minutes ago)
IFR
Wind Visibility
10° at 12 knots
 Gusting to 16 knots
2 1/2 miles
Clouds
  • Clear skies
Conditions
  • Light Snow
Temperature Dewpoint
-10°C / 14°F -12°C / 10°F
Humidity Altimeter Pressure
85% 30.17" Hg 1021.72 hPa